Time;durP1;ratioP1;P1;durP2;ratioP2;P2;SDS_P1;SDS_P2;PMS_P1;PMS_P2;Temp;Humidity;BMP_temperature;BMP_pressure;BME280_temperature;BME280_humidity;BME280_pressure;Samples;Min_cycle;Max_cycle;Signal;HPM_P1;HPM_P2
2023/11/22 00:00:13;;;;;;;13.63;2.88;;;16.10;86.50;;;;;;5135414;27;20426;-80
2023/11/22 00:02:39;;;;;;;13.18;3.00;;;16.10;86.60;;;;;;5120755;27;20118;-80
2023/11/22 00:05:05;;;;;;;14.60;3.00;;;16.10;86.50;;;;;;5115399;28;20056;-79
2023/11/22 00:07:33;;;;;;;14.95;2.78;;;16.10;86.60;;;;;;5115492;28;20030;-78
2023/11/22 00:10:01;;;;;;;14.32;2.95;;;16.10;86.30;;;;;;5115149;28;20472;-79
2023/11/22 00:12:27;;;;;;;17.45;3.05;;;16.10;86.50;;;;;;5116210;27;20214;-78
2023/11/22 00:14:54;;;;;;;12.88;3.10;;;16.10;86.30;;;;;;5130076;27;20031;-78
2023/11/22 00:17:20;;;;;;;11.82;3.28;;;16.00;86.30;;;;;;5135333;27;20050;-79
2023/11/22 00:19:46;;;;;;;11.15;2.47;;;16.00;86.50;;;;;;5121829;27;20066;-79
2023/11/22 00:22:14;;;;;;;10.82;2.40;;;16.00;86.40;;;;;;5114616;28;20537;-80
2023/11/22 00:24:40;;;;;;;8.93;2.33;;;16.00;86.30;;;;;;5114858;28;20023;-78
2023/11/22 00:27:06;;;;;;;12.90;3.03;;;16.00;86.40;;;;;;5114738;28;20038;-79
2023/11/22 00:29:32;;;;;;;11.90;2.47;;;16.00;86.50;;;;;;5124046;27;20075;-79
2023/11/22 00:31:58;;;;;;;13.80;2.95;;;16.00;86.70;;;;;;5135292;27;20024;-79
2023/11/22 00:34:24;;;;;;;12.30;2.78;;;16.00;87.00;;;;;;5135093;27;20031;-79
2023/11/22 00:36:50;;;;;;;13.65;2.60;;;16.00;87.00;;;;;;5135074;27;20035;-79
2023/11/22 00:39:16;;;;;;;18.10;3.30;;;15.90;87.30;;;;;;5135177;27;20118;-78
2023/11/22 00:41:44;;;;;;;11.50;2.90;;;15.90;87.40;;;;;;5139872;27;20397;-78
2023/11/22 00:44:10;;;;;;;16.40;2.95;;;15.90;87.60;;;;;;5134014;27;20081;-79
2023/11/22 00:46:37;;;;;;;13.82;3.10;;;15.90;87.70;;;;;;5115202;28;20027;-79
2023/11/22 00:49:04;;;;;;;13.50;2.50;;;15.80;87.80;;;;;;5114870;28;20032;-78
2023/11/22 00:51:31;;;;;;;14.52;2.67;;;15.80;88.10;;;;;;5112976;28;20031;-78
2023/11/22 00:53:57;;;;;;;13.25;3.10;;;15.80;88.10;;;;;;5114742;28;20068;-78
2023/11/22 00:56:23;;;;;;;13.20;2.92;;;15.80;88.20;;;;;;5113824;28;20028;-79
2023/11/22 00:58:49;;;;;;;15.80;2.63;;;15.70;88.30;;;;;;5114068;28;20381;-78
2023/11/22 01:01:18;;;;;;;14.57;2.85;;;15.70;88.50;;;;;;5113544;28;20023;-78
2023/11/22 01:03:43;;;;;;;9.07;2.60;;;15.70;88.70;;;;;;5113742;28;20051;-79
2023/11/22 01:06:09;;;;;;;11.95;2.65;;;15.70;88.70;;;;;;5113903;28;20507;-79
2023/11/22 01:08:36;;;;;;;13.23;3.13;;;15.70;88.90;;;;;;5132996;27;20023;-78
2023/11/22 01:11:03;;;;;;;13.82;3.17;;;15.70;88.80;;;;;;5134193;27;20035;-77
2023/11/22 01:13:29;;;;;;;13.93;2.78;;;15.70;89.00;;;;;;5133930;27;20023;-78
2023/11/22 01:15:55;;;;;;;13.65;2.78;;;15.60;88.90;;;;;;5134128;27;20057;-78
2023/11/22 01:18:21;;;;;;;12.30;2.50;;;15.70;88.80;;;;;;5111696;27;20469;-80
2023/11/22 01:20:46;;;;;;;14.88;3.13;;;15.60;88.70;;;;;;5133822;27;20499;-79
2023/11/22 01:23:12;;;;;;;11.52;3.17;;;15.60;88.50;;;;;;5133777;27;20488;-79
2023/11/22 01:25:38;;;;;;;11.45;2.67;;;15.50;88.50;;;;;;5121274;27;20062;-79
2023/11/22 01:28:04;;;;;;;10.32;2.45;;;15.50;88.60;;;;;;5113079;28;20026;-76
2023/11/22 01:30:29;;;;;;;10.90;2.30;;;15.50;88.70;;;;;;5113293;28;20350;-78
2023/11/22 01:32:55;;;;;;;8.80;2.00;;;15.50;88.50;;;;;;5115767;27;20020;-79
2023/11/22 01:35:21;;;;;;;13.63;2.63;;;15.50;88.40;;;;;;5133766;27;20106;-78
2023/11/22 01:37:47;;;;;;;15.68;3.35;;;15.50;88.30;;;;;;5133568;27;20069;-78
2023/11/22 01:40:13;;;;;;;9.60;2.28;;;15.50;88.20;;;;;;5133701;27;20019;-78
2023/11/22 01:42:42;;;;;;;13.35;2.78;;;15.50;88.10;;;;;;5133305;27;20134;-78
2023/11/22 01:45:09;;;;;;;13.18;2.38;;;15.50;88.00;;;;;;5133360;27;20042;-77
2023/11/22 01:47:36;;;;;;;10.52;2.35;;;15.50;88.10;;;;;;5133553;27;20530;-79
2023/11/22 01:50:05;;;;;;;12.48;2.50;;;15.40;88.10;;;;;;5126170;27;20024;-78
2023/11/22 01:52:31;;;;;;;10.80;2.55;;;15.40;88.40;;;;;;5113023;28;20437;-78
2023/11/22 01:54:57;;;;;;;10.60;2.40;;;15.40;88.40;;;;;;5112894;28;20030;-77
2023/11/22 01:57:23;;;;;;;10.35;2.63;;;15.40;88.50;;;;;;5112519;28;20453;-78
2023/11/22 01:59:49;;;;;;;14.02;2.75;;;15.40;88.40;;;;;;5112267;28;20036;-78
2023/11/22 02:02:15;;;;;;;15.40;2.65;;;15.40;88.50;;;;;;5112342;28;20051;-78
2023/11/22 02:04:40;;;;;;;12.20;2.78;;;15.40;88.50;;;;;;5112630;28;20110;-78
2023/11/22 02:07:06;;;;;;;12.77;2.67;;;15.40;88.50;;;;;;5112423;28;20059;-79
2023/11/22 02:09:32;;;;;;;14.35;3.00;;;15.30;88.40;;;;;;5115980;28;20072;-78
2023/11/22 02:11:58;;;;;;;9.52;2.30;;;15.30;88.60;;;;;;5115992;28;20031;-79
2023/11/22 02:14:24;;;;;;;12.32;2.40;;;15.20;88.70;;;;;;5111923;28;20016;-80
2023/11/22 02:16:50;;;;;;;13.35;2.40;;;15.20;88.90;;;;;;5112673;28;20042;-78
2023/11/22 02:19:17;;;;;;;12.98;2.35;;;15.10;89.20;;;;;;5120061;27;20020;-79
2023/11/22 02:21:43;;;;;;;12.40;3.00;;;15.10;89.30;;;;;;5128360;27;20027;-79
2023/11/22 02:24:10;;;;;;;12.00;2.83;;;15.10;89.50;;;;;;5132803;27;20500;-79
2023/11/22 02:26:36;;;;;;;10.30;2.70;;;15.10;89.60;;;;;;5133294;27;20072;-79
2023/11/22 02:29:04;;;;;;;13.15;3.42;;;15.10;89.70;;;;;;5133335;27;20023;-78
2023/11/22 02:31:30;;;;;;;11.52;3.17;;;15.10;89.70;;;;;;5133658;27;20034;-79
2023/11/22 02:33:56;;;;;;;14.27;3.30;;;15.20;89.80;;;;;;5132967;27;20030;-78
2023/11/22 02:36:24;;;;;;;12.05;2.53;;;15.20;89.80;;;;;;5133120;27;20402;-78
2023/11/22 02:38:51;;;;;;;14.35;3.00;;;15.20;89.80;;;;;;5133341;27;20467;-80
2023/11/22 02:41:16;;;;;;;13.02;3.05;;;15.20;89.90;;;;;;5132913;27;20047;-77
2023/11/22 02:43:42;;;;;;;12.05;2.50;;;15.20;89.80;;;;;;5132932;27;20376;-79
2023/11/22 02:46:11;;;;;;;12.38;3.00;;;15.10;89.60;;;;;;5132928;27;20088;-79
2023/11/22 02:48:37;;;;;;;11.13;2.47;;;15.10;89.70;;;;;;5132962;27;20046;-80
2023/11/22 02:51:03;;;;;;;10.02;3.10;;;15.10;89.70;;;;;;5133048;27;20507;-78
2023/11/22 02:53:30;;;;;;;11.82;2.47;;;15.10;89.90;;;;;;5133166;27;20027;-78
2023/11/22 02:56:00;;;;;;;10.70;2.33;;;15.10;89.90;;;;;;5132542;27;20024;-79
2023/11/22 02:58:27;;;;;;;11.45;2.58;;;15.00;90.00;;;;;;5132798;27;20453;-79
2023/11/22 03:00:54;;;;;;;11.43;2.67;;;15.00;90.00;;;;;;5132816;27;20019;-77
2023/11/22 03:03:20;;;;;;;9.85;2.90;;;14.90;90.00;;;;;;5132539;27;20031;-79
2023/11/22 03:05:46;;;;;;;12.75;3.42;;;14.80;90.10;;;;;;5132744;27;20388;-78
2023/11/22 03:08:12;;;;;;;12.93;2.85;;;14.80;90.10;;;;;;5132631;27;20012;-78
2023/11/22 03:10:38;;;;;;;11.93;2.83;;;14.80;90.10;;;;;;5132679;27;20166;-79
2023/11/22 03:13:05;;;;;;;10.57;2.63;;;14.80;90.10;;;;;;5132519;27;20023;-78
2023/11/22 03:15:31;;;;;;;9.13;2.72;;;14.70;90.20;;;;;;5136565;27;20027;-78
2023/11/22 03:17:58;;;;;;;11.32;3.08;;;14.60;90.20;;;;;;5136709;27;20039;-78
2023/11/22 03:20:24;;;;;;;9.32;2.40;;;14.60;90.20;;;;;;5136616;27;20027;-80
2023/11/22 03:22:50;;;;;;;12.20;2.95;;;14.60;90.30;;;;;;5136547;27;20096;-78
2023/11/22 03:25:16;;;;;;;12.02;2.45;;;14.60;90.40;;;;;;5136587;27;20111;-78
2023/11/22 03:27:42;;;;;;;14.20;2.80;;;14.60;90.40;;;;;;5130938;27;20071;-79
2023/11/22 03:30:11;;;;;;;11.07;3.03;;;14.50;90.40;;;;;;5136601;27;20058;-79
2023/11/22 03:32:39;;;;;;;9.73;2.97;;;14.40;90.40;;;;;;5136121;27;20445;-78
2023/11/22 03:35:06;;;;;;;14.77;3.83;;;14.40;90.50;;;;;;5136012;27;20065;-78
2023/11/22 03:37:32;;;;;;;11.68;3.13;;;14.30;90.40;;;;;;5140738;27;20023;-77
2023/11/22 03:39:58;;;;;;;10.73;3.30;;;14.30;90.50;;;;;;5141063;27;20027;-77
2023/11/22 03:42:24;;;;;;;13.32;3.42;;;14.20;90.50;;;;;;5136281;27;20098;-78
2023/11/22 03:44:50;;;;;;;9.43;2.97;;;14.20;90.50;;;;;;5136159;27;20132;-77
2023/11/22 03:47:16;;;;;;;10.68;2.90;;;14.20;90.50;;;;;;5136078;27;20072;-78
2023/11/22 03:49:42;;;;;;;8.52;3.22;;;14.10;90.50;;;;;;5135929;27;20043;-80
2023/11/22 03:52:10;;;;;;;9.43;3.58;;;14.10;90.50;;;;;;5135955;27;20483;-79
2023/11/22 03:54:37;;;;;;;7.15;2.45;;;14.10;90.60;;;;;;5135961;27;20056;-79
2023/11/22 03:57:03;;;;;;;8.45;2.53;;;14.10;90.60;;;;;;5135815;27;20484;-78
2023/11/22 03:59:29;;;;;;;11.57;3.22;;;14.10;90.60;;;;;;5135785;27;20011;-78
2023/11/22 04:01:55;;;;;;;9.25;2.70;;;14.10;90.70;;;;;;5135686;27;20403;-78
2023/11/22 04:04:21;;;;;;;12.40;2.50;;;14.10;90.80;;;;;;5135166;27;20097;-78
2023/11/22 04:06:47;;;;;;;11.43;2.63;;;14.00;90.70;;;;;;5094368;28;20048;-80
2023/11/22 04:09:13;;;;;;;10.95;2.55;;;14.00;90.70;;;;;;5094492;28;20020;-80
2023/11/22 04:11:39;;;;;;;10.85;3.20;;;14.00;90.80;;;;;;5094586;28;20024;-78
2023/11/22 04:14:05;;;;;;;7.53;2.00;;;14.00;90.90;;;;;;5094418;28;20028;-79
2023/11/22 04:16:31;;;;;;;9.15;2.55;;;14.00;90.90;;;;;;5094472;28;20058;-79
2023/11/22 04:18:57;;;;;;;13.95;2.78;;;14.00;90.90;;;;;;5094593;28;20024;-79
2023/11/22 04:21:24;;;;;;;10.52;2.97;;;13.90;90.90;;;;;;5094182;28;20031;-79
2023/11/22 04:23:49;;;;;;;10.82;3.03;;;13.90;90.90;;;;;;5094639;28;20089;-79
2023/11/22 04:26:15;;;;;;;13.20;3.05;;;13.90;91.00;;;;;;5094394;28;20474;-79
2023/11/22 04:28:41;;;;;;;7.28;2.45;;;13.90;91.10;;;;;;5094967;28;20542;-79
2023/11/22 04:31:08;;;;;;;11.27;2.40;;;13.90;91.10;;;;;;5093539;28;20500;-80
2023/11/22 04:33:34;;;;;;;7.93;2.40;;;13.90;91.20;;;;;;5089179;28;20431;-78
2023/11/22 04:36:00;;;;;;;11.38;2.65;;;13.90;91.20;;;;;;5094583;28;20487;-80
2023/11/22 04:38:26;;;;;;;8.73;2.58;;;13.90;91.20;;;;;;5094179;28;20170;-80
2023/11/22 04:40:52;;;;;;;9.57;3.30;;;13.80;91.30;;;;;;5094134;28;20104;-79
2023/11/22 04:43:18;;;;;;;9.48;2.60;;;13.80;91.30;;;;;;5094368;28;20028;-80
2023/11/22 04:45:43;;;;;;;13.27;2.75;;;13.80;91.30;;;;;;5094501;28;20374;-79
2023/11/22 04:48:09;;;;;;;11.90;2.92;;;13.80;91.40;;;;;;5094025;28;20418;-79
2023/11/22 04:50:35;;;;;;;12.27;2.55;;;13.90;91.50;;;;;;5094170;28;20095;-79
2023/11/22 04:53:01;;;;;;;10.80;3.25;;;13.80;91.40;;;;;;5094778;28;20393;-79
2023/11/22 04:55:28;;;;;;;8.43;2.58;;;13.80;91.40;;;;;;5094281;28;20056;-79
2023/11/22 04:57:54;;;;;;;9.15;2.60;;;13.80;91.50;;;;;;5093872;28;20427;-79
2023/11/22 05:00:24;;;;;;;7.78;2.67;;;13.80;91.60;;;;;;5093804;28;20035;-80
2023/11/22 05:02:50;;;;;;;9.55;2.42;;;13.70;91.60;;;;;;5093940;28;20119;-80
2023/11/22 05:05:16;;;;;;;7.47;2.72;;;13.70;91.70;;;;;;5094016;28;20398;-80
2023/11/22 05:07:42;;;;;;;9.50;2.60;;;13.70;91.70;;;;;;5109200;28;20020;-80
2023/11/22 05:10:09;;;;;;;10.23;2.70;;;13.70;91.70;;;;;;5097311;28;20046;-82
2023/11/22 05:12:34;;;;;;;7.05;2.38;;;13.60;91.70;;;;;;5093459;28;20020;-80
2023/11/22 05:15:04;;;;;;;10.75;2.20;;;13.60;91.70;;;;;;5093949;28;20111;-79
2023/11/22 05:17:29;;;;;;;7.80;2.15;;;13.50;91.70;;;;;;5093909;28;20024;-81
2023/11/22 05:19:56;;;;;;;8.95;2.00;;;13.50;91.70;;;;;;5094106;28;20035;-80
2023/11/22 05:22:22;;;;;;;4.82;1.77;;;13.50;91.80;;;;;;5093994;28;20485;-79
2023/11/22 05:24:49;;;;;;;5.07;1.80;;;13.40;91.70;;;;;;5094010;28;20073;-80
2023/11/22 05:27:14;;;;;;;6.45;1.67;;;13.40;91.60;;;;;;5093712;28;20024;-81
2023/11/22 05:29:40;;;;;;;4.32;1.23;;;13.40;91.50;;;;;;5093494;28;20024;-79
2023/11/22 05:32:06;;;;;;;10.68;1.50;;;13.30;91.50;;;;;;5093408;28;20480;-80
2023/11/22 05:34:32;;;;;;;7.47;1.60;;;13.30;91.30;;;;;;5092284;28;20062;-80
2023/11/22 05:36:58;;;;;;;4.40;1.33;;;13.20;91.30;;;;;;5093006;28;20039;-80
2023/11/22 05:39:24;;;;;;;4.45;1.27;;;13.20;91.20;;;;;;5088057;28;20047;-79
2023/11/22 05:41:51;;;;;;;4.80;1.13;;;13.20;91.10;;;;;;5092912;28;20048;-81
2023/11/22 05:44:16;;;;;;;4.65;1.50;;;13.20;91.10;;;;;;5092554;28;20437;-80
2023/11/22 05:46:42;;;;;;;3.03;1.02;;;13.20;91.10;;;;;;5092622;28;20102;-79
2023/11/22 05:49:08;;;;;;;2.55;1.10;;;13.20;90.90;;;;;;5092641;28;20392;-80
2023/11/22 05:51:34;;;;;;;2.65;1.20;;;13.20;90.80;;;;;;5093034;28;20092;-80
2023/11/22 05:54:00;;;;;;;2.92;1.10;;;13.10;90.60;;;;;;5092739;28;20016;-80
2023/11/22 05:56:26;;;;;;;4.57;1.38;;;13.10;90.60;;;;;;5092548;28;20016;-80
2023/11/22 05:58:51;;;;;;;1.92;0.80;;;13.10;90.40;;;;;;5092330;28;20427;-80
2023/11/22 06:01:17;;;;;;;2.80;0.80;;;13.10;90.30;;;;;;5092683;28;20474;-81
2023/11/22 06:03:43;;;;;;;2.03;0.85;;;13.00;90.20;;;;;;5092486;28;20027;-80
2023/11/22 06:06:09;;;;;;;2.88;1.10;;;13.10;90.30;;;;;;5092544;28;20016;-80
2023/11/22 06:08:35;;;;;;;2.20;0.65;;;13.10;90.20;;;;;;5092787;28;20020;-80
2023/11/22 06:11:00;;;;;;;2.97;0.57;;;13.00;89.70;;;;;;5092736;28;20028;-79
2023/11/22 06:13:27;;;;;;;2.22;0.70;;;13.00;89.60;;;;;;5093319;28;20438;-81
2023/11/22 06:15:53;;;;;;;1.83;0.70;;;13.00;89.40;;;;;;5092843;28;20028;-81
2023/11/22 06:18:18;;;;;;;1.88;0.50;;;13.00;89.20;;;;;;5092681;28;20028;-81
2023/11/22 06:20:45;;;;;;;2.50;0.70;;;13.00;88.90;;;;;;5092424;28;20115;-80
2023/11/22 06:23:11;;;;;;;1.60;0.65;;;13.00;88.60;;;;;;5092095;28;20032;-81
2023/11/22 06:25:37;;;;;;;2.60;0.70;;;13.00;88.60;;;;;;5091090;28;20019;-79
2023/11/22 06:28:03;;;;;;;0.90;0.55;;;13.00;88.40;;;;;;5092630;28;20489;-79
2023/11/22 06:30:30;;;;;;;3.22;0.75;;;13.10;88.40;;;;;;5092223;28;20527;-80
2023/11/22 06:32:56;;;;;;;2.67;0.80;;;13.10;88.10;;;;;;5092165;28;20020;-81
2023/11/22 06:35:22;;;;;;;2.53;1.10;;;13.10;87.90;;;;;;5092071;28;20385;-80
2023/11/22 06:37:47;;;;;;;1.10;0.70;;;13.10;87.90;;;;;;5091265;28;20024;-85
2023/11/22 06:40:13;;;;;;;1.85;0.85;;;13.30;87.80;;;;;;5095022;28;20107;-79
2023/11/22 06:42:41;;;;;;;2.30;0.85;;;13.50;87.20;;;;;;5086181;28;20390;-77
2023/11/22 06:45:09;;;;;;;3.72;1.00;;;13.50;86.90;;;;;;5091864;28;20028;-79
2023/11/22 06:47:36;;;;;;;3.55;0.98;;;13.50;87.00;;;;;;5092367;28;20024;-75
2023/11/22 06:50:08;;;;;;;5.70;0.80;;;13.90;86.40;;;;;;5102062;28;20076;-73
2023/11/22 06:52:38;;;;;;;3.80;1.00;;;14.70;85.00;;;;;;5111135;28;20031;-73
2023/11/22 06:55:07;;;;;;;2.90;0.82;;;15.60;83.00;;;;;;5094834;28;20035;-74
2023/11/22 06:57:33;;;;;;;0.75;0.68;;;16.30;81.40;;;;;;5095644;28;20024;-74
2023/11/22 07:00:00;;;;;;;2.60;0.70;;;16.70;79.10;;;;;;5095396;28;20495;-73
2023/11/22 07:02:26;;;;;;;2.50;1.05;;;17.00;78.30;;;;;;5095387;28;20397;-74
2023/11/22 07:04:52;;;;;;;6.18;0.80;;;17.40;77.80;;;;;;5095681;28;20031;-74
2023/11/22 07:07:19;;;;;;;3.95;0.90;;;17.80;76.30;;;;;;5095081;28;20032;-74
2023/11/22 07:09:46;;;;;;;1.95;0.80;;;18.30;75.40;;;;;;5095478;28;20022;-74
2023/11/22 07:12:12;;;;;;;4.03;1.00;;;18.50;74.60;;;;;;5095372;28;20450;-74
2023/11/22 07:14:38;;;;;;;2.13;0.90;;;18.70;73.90;;;;;;5095022;28;20127;-74
2023/11/22 07:17:06;;;;;;;5.55;1.33;;;19.10;73.20;;;;;;5101554;28;20193;-73
2023/11/22 07:19:37;;;;;;;2.97;0.85;;;19.50;72.10;;;;;;5112230;28;20115;-74
2023/11/22 07:22:04;;;;;;;7.30;1.20;;;19.50;70.80;;;;;;5103179;28;20346;-74
2023/11/22 07:24:34;;;;;;;4.47;0.90;;;18.40;72.00;;;;;;5101312;27;20020;-74
2023/11/22 07:27:00;;;;;;;2.17;0.90;;;17.40;73.70;;;;;;5094943;28;20016;-73
2023/11/22 07:29:29;;;;;;;3.30;0.88;;;16.80;75.80;;;;;;5096240;28;20047;-73
2023/11/22 07:31:56;;;;;;;4.00;1.17;;;16.30;77.00;;;;;;5093513;28;20126;-74
2023/11/22 07:34:22;;;;;;;5.68;1.02;;;16.00;77.50;;;;;;5095342;28;20476;-73
2023/11/22 07:36:47;;;;;;;4.25;1.50;;;15.80;77.90;;;;;;5113631;28;20114;-73
2023/11/22 07:39:13;;;;;;;3.28;1.10;;;15.60;78.70;;;;;;5115108;28;20020;-73
2023/11/22 07:41:39;;;;;;;3.00;1.20;;;15.40;78.40;;;;;;5115102;28;20414;-75
2023/11/22 07:44:05;;;;;;;6.03;1.20;;;15.30;78.70;;;;;;5114799;28;20068;-73
2023/11/22 07:46:30;;;;;;;2.75;1.15;;;15.20;78.80;;;;;;5109584;28;20027;-74
2023/11/22 07:48:57;;;;;;;3.92;1.10;;;15.10;78.90;;;;;;5115103;28;20145;-74
2023/11/22 07:51:24;;;;;;;8.48;2.00;;;15.00;79.00;;;;;;5114838;28;20069;-73
2023/11/22 07:53:49;;;;;;;5.75;1.20;;;15.00;79.20;;;;;;5114706;28;20020;-72
2023/11/22 07:56:15;;;;;;;4.72;1.10;;;15.00;79.30;;;;;;5114630;28;20487;-73
2023/11/22 07:58:41;;;;;;;3.22;1.08;;;15.10;79.10;;;;;;5108238;28;20043;-77
2023/11/22 08:01:12;;;;;;;2.58;1.05;;;15.10;79.10;;;;;;5092764;28;20024;-86
2023/11/22 08:03:44;;;;;;;5.28;1.00;;;15.10;79.00;;;;;;5094186;28;20028;-77
2023/11/22 08:06:10;;;;;;;6.05;1.35;;;15.10;78.90;;;;;;5126242;27;20068;-87
2023/11/22 08:08:39;;;;;;;2.83;1.00;;;15.10;79.00;;;;;;5135849;27;20385;-84
2023/11/22 08:11:14;;;;;;;2.05;0.80;;;15.10;79.10;;;;;;5117924;27;20101;-86
2023/11/22 08:13:42;;;;;;;4.32;1.00;;;15.10;79.10;;;;;;5102868;28;20027;-83
2023/11/22 08:16:09;;;;;;;3.08;0.88;;;15.10;79.10;;;;;;5118555;28;20024;-89
2023/11/22 08:18:34;;;;;;;3.45;1.00;;;15.00;79.00;;;;;;5110419;28;20051;-82
2023/11/22 08:21:00;;;;;;;2.35;0.93;;;15.00;79.10;;;;;;5103376;28;20474;-81
2023/11/22 08:23:30;;;;;;;5.30;1.05;;;14.90;79.20;;;;;;5095709;28;20451;-82
2023/11/22 08:25:56;;;;;;;1.88;0.80;;;14.90;79.50;;;;;;5094619;28;20028;-81
2023/11/22 08:28:22;;;;;;;4.10;0.93;;;14.90;79.40;;;;;;5094222;28;20478;-83
2023/11/22 08:30:48;;;;;;;4.57;0.85;;;14.80;79.50;;;;;;5093828;28;20020;-80
2023/11/22 08:33:14;;;;;;;1.98;0.80;;;14.90;79.80;;;;;;5094216;28;20027;-81
2023/11/22 08:35:40;;;;;;;2.78;1.05;;;14.90;79.80;;;;;;5094065;28;20119;-83
2023/11/22 08:38:09;;;;;;;2.45;0.90;;;14.90;80.00;;;;;;5094162;28;20028;-82
2023/11/22 08:40:36;;;;;;;4.63;1.10;;;14.90;79.90;;;;;;5094266;28;20035;-82
2023/11/22 08:43:04;;;;;;;2.95;0.90;;;14.90;80.00;;;;;;5093548;28;20043;-82
2023/11/22 08:45:31;;;;;;;6.93;1.35;;;14.90;79.90;;;;;;5094169;28;20100;-81
2023/11/22 08:47:57;;;;;;;1.90;1.00;;;15.00;80.10;;;;;;5093937;28;20510;-82
2023/11/22 08:50:23;;;;;;;2.72;0.80;;;15.00;80.00;;;;;;5093737;28;20024;-82
2023/11/22 08:52:52;;;;;;;4.07;1.02;;;15.00;80.10;;;;;;5093889;28;20391;-81
2023/11/22 08:55:21;;;;;;;1.98;0.90;;;15.00;80.00;;;;;;5105403;28;20085;-81
2023/11/22 08:57:50;;;;;;;2.17;1.25;;;15.10;80.30;;;;;;5097823;28;20372;-81
2023/11/22 09:00:22;;;;;;;2.65;0.93;;;15.10;80.10;;;;;;5096732;28;20538;-83
2023/11/22 09:02:51;;;;;;;2.88;0.90;;;15.20;80.00;;;;;;5113892;28;20040;-82
2023/11/22 09:05:16;;;;;;;3.45;0.90;;;15.30;79.80;;;;;;5113951;28;20075;-82
2023/11/22 09:07:46;;;;;;;0.65;0.65;;;15.40;79.70;;;;;;5114098;28;20027;-82
2023/11/22 09:10:13;;;;;;;5.57;0.90;;;15.40;79.40;;;;;;5111253;28;20031;-81
2023/11/22 09:12:41;;;;;;;3.42;1.00;;;15.40;79.20;;;;;;5106394;28;20028;-81
2023/11/22 09:15:15;;;;;;;2.42;0.85;;;15.50;79.30;;;;;;5107115;28;20022;-82
2023/11/22 09:17:43;;;;;;;1.15;0.75;;;15.50;79.10;;;;;;5097968;28;20028;-81
2023/11/22 09:20:18;;;;;;;2.20;0.95;;;15.50;79.30;;;;;;5099254;28;20031;-82
2023/11/22 09:22:52;;;;;;;2.22;0.90;;;15.50;78.80;;;;;;5093100;28;20036;-80
2023/11/22 09:25:21;;;;;;;;;;;15.40;78.70;;;;;;5113054;28;20027;-82
2023/11/22 09:27:49;;;;;;;1.52;0.90;;;15.40;78.70;;;;;;5111443;28;19908;-81
2023/11/22 09:30:32;;;;;;;5.28;1.08;;;15.40;79.00;;;;;;5106793;27;20031;-81
2023/11/22 09:33:02;;;;;;;2.97;1.00;;;15.50;78.90;;;;;;5117075;27;20079;-83
2023/11/22 09:35:34;;;;;;;6.35;1.05;;;15.50;78.80;;;;;;5131804;27;20026;-83
2023/11/22 09:38:04;;;;;;;3.65;1.30;;;15.60;78.90;;;;;;5132038;27;20020;-82
2023/11/22 09:40:33;;;;;;;1.95;0.80;;;15.70;78.50;;;;;;5132879;27;20015;-83
2023/11/22 09:43:01;;;;;;;4.50;1.00;;;15.80;78.30;;;;;;5133411;27;20047;-83
2023/11/22 09:45:29;;;;;;;1.65;0.98;;;15.80;78.10;;;;;;5133722;27;20019;-83
2023/11/22 09:47:55;;;;;;;2.42;1.10;;;16.00;77.70;;;;;;5134235;27;20031;-81
2023/11/22 09:50:43;;;;;;;3.38;0.90;;;16.20;77.30;;;;;;5133554;27;20106;-84
2023/11/22 09:53:34;;;;;;;10.82;1.20;;;16.50;76.50;;;;;;5133540;27;20024;-82
2023/11/22 09:56:06;;;;;;;4.07;1.20;;;16.80;75.80;;;;;;5134735;27;20043;-84
2023/11/22 09:58:33;;;;;;;1.45;0.73;;;16.90;75.00;;;;;;5137364;27;20019;-82
2023/11/22 10:01:02;;;;;;;2.63;1.00;;;17.00;74.80;;;;;;5136243;27;20027;-81
2023/11/22 10:03:28;;;;;;;4.80;1.10;;;17.30;74.40;;;;;;5133808;27;20035;-83
2023/11/22 10:05:57;;;;;;;1.80;1.00;;;17.40;73.60;;;;;;5133383;27;20019;-83
2023/11/22 10:08:23;;;;;;;5.78;1.23;;;17.40;73.40;;;;;;5133306;27;20035;-83
2023/11/22 10:10:54;;;;;;;2.55;1.08;;;17.40;73.20;;;;;;5133825;27;20499;-82
2023/11/22 10:13:20;;;;;;;2.42;0.88;;;17.50;73.40;;;;;;5133520;27;20106;-83
2023/11/22 10:15:50;;;;;;;3.05;1.00;;;17.50;73.00;;;;;;5134130;27;20034;-82
2023/11/22 10:18:17;;;;;;;1.23;0.80;;;17.40;72.40;;;;;;5133531;27;20474;-84
2023/11/22 10:20:46;;;;;;;2.55;0.70;;;17.30;71.80;;;;;;5137729;27;20430;-82
2023/11/22 10:23:24;;;;;;;3.97;1.05;;;17.30;72.00;;;;;;5133538;27;20115;-82
2023/11/22 10:25:52;;;;;;;2.00;0.90;;;17.40;72.30;;;;;;5134294;27;20019;-79
2023/11/22 10:28:20;;;;;;;4.13;1.40;;;17.40;71.60;;;;;;5133639;27;20038;-83
2023/11/22 10:30:51;;;;;;;2.72;1.02;;;17.50;71.40;;;;;;5133872;27;20350;-85
2023/11/22 10:33:18;;;;;;;1.60;0.77;;;17.60;72.00;;;;;;5088430;22;20055;-85
2023/11/22 10:35:53;;;;;;;2.13;1.02;;;17.60;71.20;;;;;;5072291;28;20020;-83
2023/11/22 10:38:21;;;;;;;5.78;1.40;;;17.60;70.40;;;;;;5072502;28;20021;-83
2023/11/22 10:40:47;;;;;;;1.02;0.70;;;17.50;70.40;;;;;;5072707;28;20128;-83
2023/11/22 10:43:16;;;;;;;3.17;1.02;;;17.40;70.90;;;;;;5074085;28;20052;-84
2023/11/22 10:45:48;;;;;;;4.47;0.85;;;17.30;71.10;;;;;;5087883;28;20072;-83
2023/11/22 10:48:17;;;;;;;1.08;0.70;;;17.30;70.70;;;;;;5091219;28;20016;-82
2023/11/22 10:50:44;;;;;;;1.88;0.80;;;17.20;70.40;;;;;;5095462;28;20074;-83
2023/11/22 10:53:15;;;;;;;5.55;1.00;;;17.30;70.50;;;;;;5095593;28;20051;-71
2023/11/22 10:55:48;;;;;;;2.85;1.10;;;17.50;70.30;;;;;;5077839;28;20037;-82
2023/11/22 10:58:15;;;;;;;7.57;1.30;;;17.60;70.10;;;;;;5073184;28;20023;-83
2023/11/22 11:00:43;;;;;;;2.83;1.08;;;17.70;69.80;;;;;;5055258;28;20366;-82
2023/11/22 11:03:14;;;;;;;1.45;0.70;;;17.80;69.70;;;;;;5072614;28;20500;-81
2023/11/22 11:05:54;;;;;;;1.42;0.90;;;17.80;68.80;;;;;;5073024;28;20074;-82
2023/11/22 11:08:21;;;;;;;5.93;1.00;;;17.80;69.30;;;;;;5072659;28;20028;-84
2023/11/22 11:10:51;;;;;;;2.17;1.00;;;17.80;68.80;;;;;;5072844;28;20031;-83
2023/11/22 11:13:18;;;;;;;5.63;0.90;;;17.80;68.80;;;;;;5072458;28;20029;-84
2023/11/22 11:15:45;;;;;;;1.85;0.95;;;17.90;68.60;;;;;;5075251;28;20017;-83
2023/11/22 11:18:13;;;;;;;2.30;1.00;;;17.90;68.10;;;;;;5076836;28;20087;-83
2023/11/22 11:20:47;;;;;;;3.13;1.00;;;18.00;68.10;;;;;;5071551;28;20033;-82
2023/11/22 11:23:14;;;;;;;3.28;0.80;;;17.80;67.70;;;;;;5054540;28;20037;-85
2023/11/22 11:25:41;;;;;;;3.35;1.00;;;17.70;68.00;;;;;;5072677;28;20025;-84
2023/11/22 11:28:11;;;;;;;5.45;1.20;;;17.60;68.20;;;;;;5072570;28;20024;-84
2023/11/22 11:30:44;;;;;;;2.30;0.70;;;17.50;68.50;;;;;;5072235;28;20017;-82
2023/11/22 11:33:12;;;;;;;4.82;0.98;;;17.40;68.20;;;;;;5072000;28;20510;-84
2023/11/22 11:35:57;;;;;;;1.60;0.93;;;17.30;68.60;;;;;;5074760;28;20124;-83
2023/11/22 11:38:30;;;;;;;3.63;1.10;;;17.30;69.20;;;;;;5075606;28;20086;-85
2023/11/22 11:41:05;;;;;;;3.33;1.02;;;17.50;68.90;;;;;;5075870;28;20020;-84
2023/11/22 11:43:41;;;;;;;1.58;0.90;;;17.50;68.80;;;;;;5076608;28;20039;-83
2023/11/22 11:46:13;;;;;;;2.05;0.77;;;17.50;68.80;;;;;;5076669;28;20020;-84
2023/11/22 11:48:43;;;;;;;3.72;1.10;;;17.60;68.00;;;;;;5077164;28;20428;-85
2023/11/22 11:51:09;;;;;;;6.22;1.45;;;17.70;68.00;;;;;;5078410;28;20078;-83
2023/11/22 11:53:35;;;;;;;1.88;0.90;;;17.80;68.10;;;;;;5076515;28;20024;-84
2023/11/22 11:56:02;;;;;;;5.13;1.02;;;17.90;67.90;;;;;;5076261;28;20020;-83
2023/11/22 11:58:27;;;;;;;3.42;1.02;;;18.00;67.70;;;;;;5081029;28;20051;-83
2023/11/22 12:00:55;;;;;;;3.70;1.20;;;18.10;67.70;;;;;;5058007;28;20473;-84
2023/11/22 12:03:21;;;;;;;3.58;1.05;;;18.20;67.30;;;;;;5075648;28;20033;-86
2023/11/22 12:05:50;;;;;;;4.28;1.10;;;18.30;67.20;;;;;;5075992;28;20029;-84
2023/11/22 12:08:17;;;;;;;3.28;1.35;;;18.40;67.10;;;;;;5076259;28;20115;-84
2023/11/22 12:10:49;;;;;;;2.50;1.40;;;18.50;66.70;;;;;;5076028;28;20048;-84
2023/11/22 12:13:20;;;;;;;2.35;0.90;;;18.50;66.50;;;;;;5075343;28;20040;-84
2023/11/22 12:15:50;;;;;;;4.00;1.10;;;18.50;66.10;;;;;;5073734;28;20031;-84
2023/11/22 12:18:16;;;;;;;2.97;0.98;;;18.50;65.60;;;;;;5075705;28;20086;-84
2023/11/22 12:20:42;;;;;;;4.50;1.10;;;18.40;65.20;;;;;;5076179;28;20028;-80
2023/11/22 12:23:09;;;;;;;3.30;0.80;;;18.40;65.50;;;;;;5071862;28;20524;-68
2023/11/22 12:25:35;;;;;;;1.65;0.95;;;18.50;65.40;;;;;;5074174;28;20489;-68
2023/11/22 12:28:02;;;;;;;3.13;1.25;;;18.60;65.80;;;;;;5073040;28;20029;-67
2023/11/22 12:30:35;;;;;;;2.42;1.10;;;18.50;65.30;;;;;;5073705;28;20029;-67
2023/11/22 12:33:09;;;;;;;2.20;0.80;;;18.50;66.10;;;;;;5073975;28;20053;-67
2023/11/22 12:35:35;;;;;;;4.63;1.20;;;18.50;65.70;;;;;;5073771;28;20105;-66
2023/11/22 12:38:05;;;;;;;5.15;0.93;;;18.50;65.40;;;;;;5073736;28;20192;-67
2023/11/22 12:40:32;;;;;;;3.22;1.00;;;18.50;65.10;;;;;;5073535;28;20090;-68
2023/11/22 12:42:59;;;;;;;5.32;1.10;;;18.50;65.40;;;;;;5073623;28;20036;-69